createdAt,value
2018-12-07T00:00:31.510Z,3.99
2018-12-07T00:06:26.524Z,2.95
2018-12-07T00:12:21.569Z,2.82
2018-12-07T00:18:16.512Z,3.43
2018-12-07T00:24:11.535Z,3.67
2018-12-07T00:30:06.511Z,3.01
2018-12-07T00:36:01.486Z,3.14
2018-12-07T00:41:56.527Z,3.41
2018-12-07T00:47:51.504Z,3.36
2018-12-07T00:53:46.510Z,3.51
2018-12-07T00:59:41.504Z,3.62
2018-12-07T01:05:36.522Z,2.97
2018-12-07T01:11:31.519Z,2.61
2018-12-07T01:17:26.505Z,2.99
2018-12-07T01:23:21.518Z,3.13
2018-12-07T01:29:16.516Z,2.37
2018-12-07T01:35:11.540Z,3.05
2018-12-07T01:41:06.588Z,3.05
2018-12-07T01:47:01.542Z,2.61
2018-12-07T01:52:56.527Z,2.61
2018-12-07T01:58:51.543Z,2.95
2018-12-07T02:04:46.535Z,2.8
2018-12-07T02:10:41.526Z,2.94
2018-12-07T02:16:36.514Z,2.41
2018-12-07T02:22:31.541Z,2.83
2018-12-07T02:28:26.532Z,2.82
2018-12-07T02:34:21.535Z,3.02
2018-12-07T02:40:16.527Z,2.76
2018-12-07T02:46:11.532Z,2.62
2018-12-07T02:52:06.552Z,2.65
2018-12-07T02:58:01.551Z,2.16
2018-12-07T03:03:56.558Z,2.88
2018-12-07T03:09:51.579Z,2.55
2018-12-07T03:15:46.558Z,3.75
2018-12-07T03:21:41.541Z,3.27
2018-12-07T03:27:36.543Z,2.88
2018-12-07T03:33:31.532Z,3.28
2018-12-07T03:39:26.569Z,2.79
2018-12-07T03:45:21.619Z,2.69
2018-12-07T03:51:16.584Z,3.06
2018-12-07T03:57:11.582Z,2.48
2018-12-07T04:03:06.571Z,3.08
2018-12-07T04:09:01.553Z,3.25
2018-12-07T04:14:56.559Z,2.53
2018-12-07T04:20:51.559Z,2.87
2018-12-07T04:26:46.603Z,3.57
2018-12-07T04:32:41.552Z,3.13
2018-12-07T04:38:36.561Z,2.93
2018-12-07T04:44:31.607Z,3.28
2018-12-07T04:50:26.584Z,3
2018-12-07T04:56:21.569Z,3.36
2018-12-07T05:02:16.602Z,3.13
2018-12-07T05:08:11.587Z,2.56
2018-12-07T05:14:06.591Z,2.71
2018-12-07T05:20:01.592Z,2.69
2018-12-07T05:25:56.576Z,2.8
2018-12-07T05:31:51.618Z,3.07
2018-12-07T05:37:46.585Z,4.08
2018-12-07T05:43:41.561Z,4.74
2018-12-07T05:49:36.589Z,4.24
2018-12-07T05:55:31.596Z,5.24
2018-12-07T06:01:26.595Z,5.63
2018-12-07T06:07:21.576Z,5.33
2018-12-07T06:13:16.576Z,5
2018-12-07T06:19:11.612Z,3.87
2018-12-07T06:25:06.587Z,4.37
2018-12-07T06:31:01.588Z,4.16
2018-12-07T06:36:56.585Z,4.79
2018-12-07T06:42:51.612Z,4.78
2018-12-07T06:48:46.645Z,5.67
2018-12-07T06:54:41.604Z,6.58
2018-12-07T07:00:36.602Z,6.25
2018-12-07T07:06:31.592Z,6.37
2018-12-07T07:12:26.611Z,5.05
2018-12-07T07:18:21.616Z,5.08
2018-12-07T07:24:16.601Z,5.28
2018-12-07T07:30:11.593Z,5.18
2018-12-07T07:36:06.632Z,5.1
2018-12-07T07:42:01.587Z,4.73
2018-12-07T07:47:56.651Z,4.52
2018-12-07T07:53:51.638Z,5.52
2018-12-07T07:59:46.625Z,4.74
2018-12-07T08:05:41.611Z,4.87
2018-12-07T08:11:36.640Z,5.99
2018-12-07T08:17:31.633Z,10.02
2018-12-07T08:23:26.603Z,10.4
2018-12-07T08:29:21.673Z,12.26
2018-12-07T08:35:16.633Z,11.99
2018-12-07T08:41:11.605Z,12.27
2018-12-07T08:47:06.606Z,18.91
2018-12-07T08:53:01.614Z,18.33
2018-12-07T08:58:56.616Z,21.76
2018-12-07T09:04:51.638Z,23.77
2018-12-07T09:10:46.662Z,23.54
2018-12-07T09:16:41.645Z,21.07
2018-12-07T09:22:36.635Z,24.49
2018-12-07T09:28:31.619Z,22.43
2018-12-07T09:34:26.648Z,22.28
2018-12-07T09:40:21.629Z,21.5
2018-12-07T09:46:16.670Z,20.27
2018-12-07T09:52:11.620Z,20.31
2018-12-07T09:58:06.624Z,20.83
2018-12-07T10:04:01.641Z,21.68
2018-12-07T10:09:56.648Z,20.57
2018-12-07T10:15:51.635Z,20.61
2018-12-07T10:21:46.662Z,20.16
2018-12-07T10:27:41.623Z,24.97
2018-12-07T10:33:36.651Z,25.54
2018-12-07T10:39:31.639Z,22.67
2018-12-07T10:45:26.626Z,27.42
2018-12-07T10:51:21.641Z,23.63
2018-12-07T10:57:16.657Z,22.44
2018-12-07T11:03:11.668Z,25.4
2018-12-07T11:09:06.653Z,26.56
2018-12-07T11:15:01.679Z,24.01
2018-12-07T11:20:56.683Z,25.86
2018-12-07T11:26:51.661Z,25.91
2018-12-07T11:32:46.673Z,24.93
2018-12-07T11:38:41.654Z,23.27
2018-12-07T11:44:36.739Z,22.73
2018-12-07T11:50:31.672Z,23.35
2018-12-07T11:56:26.661Z,21.21
2018-12-07T12:02:26.241Z,23.78
2018-12-07T12:08:16.706Z,21.39
2018-12-07T12:14:11.694Z,21.91
2018-12-07T12:20:06.658Z,25.4
2018-12-07T12:26:01.693Z,26.83
2018-12-07T12:31:56.702Z,26.29
2018-12-07T12:37:51.670Z,26.07
2018-12-07T12:43:46.660Z,25.24
2018-12-07T12:49:41.695Z,26.55
2018-12-07T12:55:36.712Z,23.2
2018-12-07T13:01:31.693Z,19.34
2018-12-07T13:07:26.671Z,20.14
2018-12-07T13:13:21.718Z,19.52
2018-12-07T13:19:16.713Z,18.09
2018-12-07T13:25:11.703Z,15.92
2018-12-07T13:31:06.723Z,17.53
2018-12-07T13:37:01.687Z,17.23
2018-12-07T13:42:56.747Z,17.94
2018-12-07T13:48:51.769Z,18.44
2018-12-07T13:54:46.718Z,18.24
2018-12-07T14:00:41.699Z,19.68
2018-12-07T14:06:36.685Z,23.14
2018-12-07T14:12:31.949Z,23.29
2018-12-07T14:18:26.722Z,24.1
2018-12-07T14:24:21.769Z,25.99
2018-12-07T14:30:16.759Z,24.81
2018-12-07T14:36:11.820Z,26.51
2018-12-07T14:42:06.695Z,22.73
2018-12-07T14:48:01.838Z,22.18
2018-12-07T14:53:56.730Z,20.41
2018-12-07T14:59:51.756Z,20.09
2018-12-07T15:05:46.764Z,18.82
2018-12-07T15:11:43.231Z,20.94
2018-12-07T15:17:37.530Z,19.02
2018-12-07T15:23:31.778Z,25.83
2018-12-07T15:29:26.910Z,31.62
2018-12-07T15:35:21.676Z,33.44
2018-12-07T15:41:16.850Z,25.91
2018-12-07T15:47:11.733Z,40.06
2018-12-07T15:53:06.711Z,26.68
2018-12-07T15:59:01.757Z,24.44
2018-12-07T16:04:56.709Z,23.02
2018-12-07T16:10:53.106Z,20.58
2018-12-07T16:16:46.771Z,22.28
2018-12-07T16:22:41.863Z,28.3
2018-12-07T16:28:36.755Z,26.32
2018-12-07T16:34:31.825Z,24.51
2018-12-07T16:40:26.934Z,25.57
2018-12-07T16:46:21.918Z,33.08
2018-12-07T16:52:16.738Z,25.86
2018-12-07T16:58:11.920Z,36.31
2018-12-07T17:04:06.821Z,33.1
2018-12-07T17:10:02.093Z,27.5
2018-12-07T17:15:56.763Z,29.2
2018-12-07T17:21:51.805Z,28.36
2018-12-07T17:27:46.709Z,22.38
2018-12-07T17:33:41.819Z,20.87
2018-12-07T17:39:36.713Z,25.47
2018-12-07T17:45:31.978Z,24.98
2018-12-07T17:51:26.981Z,31.22
2018-12-07T17:57:21.977Z,33.99
2018-12-07T18:03:16.749Z,37.23
2018-12-07T18:09:12.020Z,35.27
2018-12-07T18:15:06.813Z,38.3
2018-12-07T18:21:02.042Z,39.5
2018-12-07T18:26:57.003Z,40.69
2018-12-07T18:32:51.766Z,42.92
2018-12-07T18:38:46.925Z,45.57
2018-12-07T18:44:41.789Z,38.59
2018-12-07T18:50:36.892Z,35.71
2018-12-07T18:56:31.982Z,43.1
2018-12-07T19:02:26.806Z,35.43
2018-12-07T19:08:21.866Z,38.74
2018-12-07T19:14:17.139Z,29.21
2018-12-07T19:20:12.007Z,33.47
2018-12-07T19:26:06.759Z,35.17
2018-12-07T19:32:01.800Z,40.79
2018-12-07T19:37:56.957Z,36.88
2018-12-07T19:43:52.024Z,36.37
2018-12-07T19:49:46.861Z,34.91
2018-12-07T19:55:41.824Z,38.03
2018-12-07T20:01:36.725Z,35.6
2018-12-07T20:07:32.114Z,37.97
2018-12-07T20:13:27.036Z,40.79
2018-12-07T20:19:21.734Z,45.23
2018-12-07T20:25:16.889Z,42.96
2018-12-07T20:31:11.793Z,41.99
2018-12-07T20:37:06.824Z,40.1
2018-12-07T20:43:01.760Z,34.15
2018-12-07T20:48:56.782Z,32.74
2018-12-07T20:54:51.794Z,31.41
2018-12-07T21:00:46.739Z,31.26
2018-12-07T21:06:41.889Z,30.93
2018-12-07T21:12:37.005Z,28.47
2018-12-07T21:18:31.882Z,28.97
2018-12-07T21:24:26.891Z,28.55
2018-12-07T21:30:21.739Z,28
2018-12-07T21:36:16.825Z,26
2018-12-07T21:42:11.845Z,24.66
2018-12-07T21:48:06.852Z,24.26
2018-12-07T21:54:02.178Z,28.32
2018-12-07T21:59:56.823Z,26.66
2018-12-07T22:05:51.891Z,24.36
2018-12-07T22:11:47.058Z,20.85
2018-12-07T22:17:41.767Z,20.17
2018-12-07T22:23:36.760Z,20.62
2018-12-07T22:29:31.827Z,23.77
2018-12-07T22:35:27.015Z,24.16
2018-12-07T22:41:22.084Z,27.44
2018-12-07T22:47:17.148Z,24.34
2018-12-07T22:53:11.762Z,23.1
2018-12-07T22:59:06.747Z,24.85
2018-12-07T23:05:01.798Z,22.44
2018-12-07T23:10:56.787Z,21.53
2018-12-07T23:16:51.758Z,22.49
2018-12-07T23:22:49.001Z,19.76
2018-12-07T23:28:41.774Z,20.24
2018-12-07T23:34:36.816Z,18.22
2018-12-07T23:40:31.769Z,18.37
2018-12-07T23:46:26.781Z,15.66
2018-12-07T23:52:21.755Z,15.14
2018-12-07T23:58:16.776Z,15.24
